Time;durP1;ratioP1;P1;durP2;ratioP2;P2;SDS_P1;SDS_P2;PMS_P1;PMS_P2;Temp;Humidity;BMP_temperature;BMP_pressure;BME280_temperature;BME280_humidity;BME280_pressure;Samples;Min_cycle;Max_cycle;Signal;HPM_P1;HPM_P2
2022/03/08 00:00:00;;;;;;;20.80;13.23;;;;;;;9.05;27.78;100211.81;342108;28;1038;-69
2022/03/08 00:00:17;;;;;;;19.65;12.88;;;;;;;9.10;28.20;100215.19;342090;28;1701;-69
2022/03/08 00:00:30;;;;;;;20.33;12.00;;;;;;;8.97;28.33;100218.88;342394;28;1783;-68
2022/03/08 00:00:42;;;;;;;21.85;12.23;;;;;;;8.99;28.04;100212.81;343652;28;1170;-69
2022/03/08 00:00:57;;;;;;;21.23;12.77;;;;;;;9.06;27.98;100210.94;343370;28;2096;-68
2022/03/08 00:01:09;;;;;;;20.02;13.15;;;;;;;9.10;27.85;100214.34;342287;28;1215;-68
2022/03/08 00:01:24;;;;;;;21.85;13.60;;;;;;;9.00;28.11;100216.25;342597;28;1707;-68
2022/03/08 00:01:36;;;;;;;21.98;13.05;;;;;;;8.98;28.26;100216.25;342528;28;1020;-68
2022/03/08 00:01:48;;;;;;;19.40;12.15;;;;;;;8.96;27.92;100217.19;342487;28;1017;-68
2022/03/08 00:02:00;;;;;;;20.20;12.68;;;;;;;8.93;28.07;100218.09;343420;28;1645;-69
2022/03/08 00:02:12;;;;;;;21.30;13.38;;;;;;;8.88;28.59;100211.28;342264;28;2191;-69
2022/03/08 00:02:25;;;;;;;21.48;13.77;;;;;;;8.87;28.62;100212.13;342667;28;1276;-69
2022/03/08 00:02:37;;;;;;;21.60;13.50;;;;;;;8.92;28.33;100215.53;342541;28;1034;-68
2022/03/08 00:02:50;;;;;;;22.38;12.60;;;;;;;8.88;28.05;100212.13;342501;28;1044;-68
2022/03/08 00:03:03;;;;;;;23.48;12.55;;;;;;;8.96;28.30;100217.19;342327;28;1251;-68
2022/03/08 00:03:15;;;;;;;23.25;13.02;;;;;;;8.93;28.48;100217.22;342000;28;1506;-68
2022/03/08 00:03:28;;;;;;;21.45;13.38;;;;;;;8.97;28.56;100211.09;341881;28;1180;-69
2022/03/08 00:03:40;;;;;;;22.42;13.73;;;;;;;8.94;28.13;100213.75;342076;28;1060;-69
2022/03/08 00:03:52;;;;;;;24.30;13.77;;;;;;;8.98;28.40;100215.41;343024;28;1763;-68
2022/03/08 00:04:04;;;;;;;24.88;13.32;;;;;;;9.00;28.29;100209.31;342704;28;3223;-68
2022/03/08 00:04:16;;;;;;;22.67;13.05;;;;;;;8.96;28.84;100210.25;342689;28;1058;-68
2022/03/08 00:04:28;;;;;;;21.80;13.25;;;;;;;9.04;28.50;100215.31;342527;28;1661;-69
2022/03/08 00:04:41;;;;;;;23.73;14.15;;;;;;;9.04;28.02;100215.31;342568;28;1053;-68
2022/03/08 00:04:52;;;;;;;24.05;14.38;;;;;;;8.99;28.16;100211.91;342522;28;1212;-68
2022/03/08 00:05:05;;;;;;;23.15;14.25;;;;;;;9.04;28.60;100214.47;342428;28;1240;-68
2022/03/08 00:05:18;;;;;;;23.52;14.50;;;;;;;8.91;28.47;100209.44;342402;28;1067;-68
2022/03/08 00:05:30;;;;;;;23.48;14.30;;;;;;;9.05;28.22;100211.81;343044;28;1813;-69
2022/03/08 00:05:42;;;;;;;23.88;14.07;;;;;;;9.06;28.20;100208.34;343826;28;1055;-70
2022/03/08 00:05:54;;;;;;;26.45;14.55;;;;;;;9.03;28.13;100205.81;343740;28;1050;-69
2022/03/08 00:06:07;;;;;;;26.83;14.98;;;;;;;9.06;28.08;100217.88;343477;28;1031;-68
2022/03/08 00:06:26;;;;;;;23.90;14.52;;;;;;;9.04;28.39;100210.13;342436;28;1454;-69
2022/03/08 00:06:38;;;;;;;23.88;14.60;;;;;;;9.08;28.31;100209.19;342127;28;1278;-68
2022/03/08 00:06:50;;;;;;;25.02;14.77;;;;;;;9.04;27.80;100207.53;342336;28;1041;-68
2022/03/08 00:07:02;;;;;;;24.30;14.20;;;;;;;9.06;28.52;100208.34;342164;28;1577;-69
2022/03/08 00:07:14;;;;;;;25.23;14.10;;;;;;;9.07;28.09;100210.06;343828;28;1090;-69
2022/03/08 00:07:28;;;;;;;25.88;14.27;;;;;;;9.10;28.37;100206.56;343529;28;1094;-69
2022/03/08 00:07:40;;;;;;;27.85;14.68;;;;;;;9.08;27.98;100206.59;343558;28;1075;-68
2022/03/08 00:07:53;;;;;;;26.48;15.02;;;;;;;9.09;27.92;100208.28;343470;28;1022;-68
2022/03/08 00:08:05;;;;;;;27.25;15.23;;;;;;;9.06;28.30;100215.28;343444;28;1081;-69
2022/03/08 00:08:17;;;;;;;27.98;15.15;;;;;;;9.08;28.02;100210.94;343400;28;1238;-69
2022/03/08 00:08:29;;;;;;;28.17;14.75;;;;;;;9.11;28.47;100203.94;343594;28;1110;-68
2022/03/08 00:08:42;;;;;;;27.00;14.70;;;;;;;8.93;28.64;100206.84;343329;28;1546;-68
2022/03/08 00:08:54;;;;;;;28.08;14.95;;;;;;;8.96;28.53;100209.41;343506;28;1246;-69
2022/03/08 00:09:06;;;;;;;27.63;14.75;;;;;;;9.03;28.70;100216.16;343577;28;1145;-68
2022/03/08 00:09:18;;;;;;;27.02;15.15;;;;;;;8.95;29.00;100208.56;343511;28;1042;-68
2022/03/08 00:09:30;;;;;;;26.33;15.45;;;;;;;8.99;28.21;100211.91;342409;28;2250;-69
2022/03/08 00:09:43;;;;;;;26.33;15.55;;;;;;;8.92;28.55;100210.34;342515;28;1906;-69
2022/03/08 00:09:55;;;;;;;26.33;14.98;;;;;;;8.95;28.35;100212.84;343564;28;1059;-68
2022/03/08 00:10:09;;;;;;;24.98;14.32;;;;;;;8.95;28.23;100205.97;343868;28;1998;-68
2022/03/08 00:10:21;;;;;;;24.25;14.15;;;;;;;9.01;28.49;100210.16;342660;28;1435;-69
2022/03/08 00:10:34;;;;;;;24.95;14.55;;;;;;;9.00;28.34;100214.50;341449;28;1297;-69
2022/03/08 00:10:47;;;;;;;26.65;14.85;;;;;;;8.99;28.34;100206.75;342152;28;1103;-69
2022/03/08 00:11:00;;;;;;;25.67;15.02;;;;;;;8.97;28.64;100214.56;342038;28;1108;-69
2022/03/08 00:11:12;;;;;;;24.58;14.70;;;;;;;8.97;28.88;100206.78;342195;28;1228;-68
2022/03/08 00:11:24;;;;;;;25.35;14.35;;;;;;;8.99;28.43;100209.31;342441;28;1640;-69
2022/03/08 00:11:37;;;;;;;22.90;13.82;;;;;;;9.08;28.70;100211.78;342037;28;1759;-69
2022/03/08 00:11:49;;;;;;;21.52;13.73;;;;;;;9.08;28.51;100209.19;342083;28;1044;-68
2022/03/08 00:12:01;;;;;;;22.10;13.93;;;;;;;9.08;28.21;100208.34;342329;28;1027;-69
2022/03/08 00:12:13;;;;;;;22.35;14.27;;;;;;;9.09;28.43;100213.47;343086;28;1096;-68
2022/03/08 00:12:25;;;;;;;22.75;14.57;;;;;;;9.14;28.32;100210.81;343626;28;1573;-69
2022/03/08 00:12:37;;;;;;;23.33;14.32;;;;;;;9.16;28.01;100201.28;343171;28;1967;-69
2022/03/08 00:12:49;;;;;;;23.85;13.75;;;;;;;9.13;28.49;100202.16;343316;28;1309;-68
2022/03/08 00:13:02;;;;;;;24.60;13.70;;;;;;;9.14;28.78;100211.66;342955;28;1050;-68
2022/03/08 00:13:14;;;;;;;22.85;13.77;;;;;;;9.13;28.40;100212.53;343499;28;1070;-69
2022/03/08 00:13:26;;;;;;;23.70;14.23;;;;;;;9.19;28.66;100208.97;343080;28;1132;-69
2022/03/08 00:13:38;;;;;;;23.33;14.32;;;;;;;9.14;28.52;100211.66;342020;28;1785;-69
2022/03/08 00:13:51;;;;;;;23.42;14.15;;;;;;;9.15;28.11;100208.16;342343;28;2017;-69
2022/03/08 00:14:03;;;;;;;21.83;13.77;;;;;;;9.14;28.72;100205.63;342655;28;1189;-69
2022/03/08 00:14:15;;;;;;;23.25;13.63;;;;;;;9.13;28.14;100215.13;342650;28;1084;-68
2022/03/08 00:14:27;;;;;;;23.17;13.73;;;;;;;9.12;28.14;100213.44;342623;28;1043;-69
2022/03/08 00:14:39;;;;;;;21.45;13.50;;;;;;;9.07;28.35;100204.88;342487;28;1047;-68
2022/03/08 00:14:55;;;;;;;21.33;13.68;;;;;;;9.11;28.39;100206.53;342624;28;1027;-68
2022/03/08 00:15:15;;;;;;;21.67;13.38;;;;;;;9.11;28.31;100211.69;342889;28;1732;-69
2022/03/08 00:15:27;;;;;;;21.55;13.90;;;;;;;9.11;28.63;100211.69;343537;28;1055;-68
2022/03/08 00:15:40;;;;;;;21.67;14.43;;;;;;;8.83;28.36;100213.06;342350;28;1835;-69
2022/03/08 00:15:52;;;;;;;23.10;14.80;;;;;;;8.95;28.27;100210.25;341986;28;1857;-68
2022/03/08 00:16:04;;;;;;;22.42;14.02;;;;;;;8.91;28.77;100206.00;342147;28;1040;-69
2022/03/08 00:16:18;;;;;;;21.35;13.30;;;;;;;8.91;28.88;100203.41;342303;28;1107;-68
2022/03/08 00:16:31;;;;;;;21.77;13.23;;;;;;;8.96;28.88;100206.81;342247;28;1145;-69
2022/03/08 00:16:43;;;;;;;22.30;13.32;;;;;;;8.84;28.80;100212.19;342047;28;1018;-69
2022/03/08 00:16:56;;;;;;;22.13;13.77;;;;;;;8.90;29.01;100212.09;342296;28;1753;-69
2022/03/08 00:17:07;;;;;;;22.38;14.14;;;;;;;8.83;29.05;100216.50;342159;28;1471;-68
2022/03/08 00:17:22;;;;;;;22.18;13.94;;;;;;;8.83;28.99;100205.28;342402;28;1292;-68
2022/03/08 00:17:35;;;;;;;22.50;13.63;;;;;;;8.83;29.04;100210.47;342170;28;1309;-68
2022/03/08 00:17:48;;;;;;;22.88;14.02;;;;;;;8.75;28.75;100203.69;342829;28;1720;-68
2022/03/08 00:18:00;;;;;;;23.25;14.45;;;;;;;8.72;28.71;100214.09;343359;28;1078;-68
2022/03/08 00:18:12;;;;;;;22.45;14.48;;;;;;;8.67;29.30;100215.03;343532;28;1231;-68
2022/03/08 00:18:24;;;;;;;22.00;14.35;;;;;;;8.65;29.32;100207.28;343494;28;1439;-69
2022/03/08 00:18:38;;;;;;;22.35;13.98;;;;;;;8.67;29.44;100210.75;343495;28;1143;-68
2022/03/08 00:18:50;;;;;;;22.35;13.45;;;;;;;8.68;29.57;100206.41;342732;28;2030;-68
2022/03/08 00:19:02;;;;;;;21.60;13.23;;;;;;;8.78;29.27;100211.41;343442;28;1997;-68
2022/03/08 00:19:14;;;;;;;22.17;13.65;;;;;;;8.78;29.11;100203.63;343718;28;1228;-68
2022/03/08 00:19:26;;;;;;;21.67;14.07;;;;;;;8.69;29.34;100208.97;342790;28;1678;-69
2022/03/08 00:19:38;;;;;;;21.10;14.00;;;;;;;8.68;28.89;100207.25;343745;28;1146;-68
2022/03/08 00:19:50;;;;;;;21.70;13.32;;;;;;;8.68;29.05;100211.59;343767;28;1162;-68
2022/03/08 00:20:07;;;;;;;21.75;13.13;;;;;;;8.68;29.04;100207.25;343516;28;1079;-69
2022/03/08 00:20:19;;;;;;;22.15;12.85;;;;;;;8.72;29.03;100208.91;342491;28;1201;-68
2022/03/08 00:20:32;;;;;;;21.35;12.80;;;;;;;8.78;29.26;100211.41;342583;28;1136;-68
2022/03/08 00:20:44;;;;;;;20.50;12.88;;;;;;;8.83;29.49;100210.47;342478;28;1098;-68
2022/03/08 00:20:56;;;;;;;21.17;13.48;;;;;;;8.86;28.80;100210.44;342489;28;1106;-69
2022/03/08 00:21:08;;;;;;;21.10;13.27;;;;;;;8.92;28.40;100207.75;342614;28;1078;-68
2022/03/08 00:21:20;;;;;;;21.73;13.13;;;;;;;8.92;28.77;100208.59;342368;28;1211;-68
2022/03/08 00:21:32;;;;;;;21.42;12.98;;;;;;;8.78;28.30;100206.22;342626;28;726;-68
2022/03/08 00:21:44;;;;;;;20.85;12.35;;;;;;;8.69;29.06;100214.16;343072;28;1547;-68
2022/03/08 00:21:56;;;;;;;21.60;12.08;;;;;;;8.55;29.45;100210.91;343841;28;1090;-68
2022/03/08 00:22:08;;;;;;;20.20;12.25;;;;;;;8.67;29.49;100210.75;343898;28;1143;-68
2022/03/08 00:22:20;;;;;;;19.63;12.68;;;;;;;8.73;28.86;100202.88;343993;28;1240;-68
2022/03/08 00:22:34;;;;;;;19.35;13.02;;;;;;;8.63;28.81;100208.19;341400;28;2053;-68
2022/03/08 00:22:46;;;;;;;20.17;12.57;;;;;;;8.52;29.20;100204.03;343506;28;1882;-68
2022/03/08 00:22:59;;;;;;;22.10;12.60;;;;;;;8.62;29.72;100206.50;343672;28;1252;-69
2022/03/08 00:23:11;;;;;;;22.77;13.05;;;;;;;8.64;30.22;100204.75;342692;28;1772;-68
2022/03/08 00:23:23;;;;;;;20.95;13.18;;;;;;;8.55;29.93;100204.00;343094;28;1306;-68
2022/03/08 00:23:36;;;;;;;20.73;12.65;;;;;;;8.67;29.69;100205.56;342416;28;1190;-69
2022/03/08 00:23:49;;;;;;;20.65;12.68;;;;;;;8.69;29.19;100208.09;342325;28;1235;-68
2022/03/08 00:24:01;;;;;;;19.10;12.20;;;;;;;8.75;29.77;100206.28;342487;28;1261;-68
2022/03/08 00:24:13;;;;;;;18.65;12.20;;;;;;;8.76;29.66;100205.38;342628;28;1529;-68
2022/03/08 00:24:25;;;;;;;18.77;12.32;;;;;;;8.78;29.36;100201.03;342329;28;1443;-68
2022/03/08 00:24:37;;;;;;;19.75;12.63;;;;;;;8.75;29.89;100201.09;342374;28;1063;-68
2022/03/08 00:24:49;;;;;;;19.73;12.63;;;;;;;8.70;29.47;100204.66;342656;28;1062;-68
2022/03/08 00:25:01;;;;;;;19.45;12.55;;;;;;;8.80;29.10;100206.22;342433;28;1660;-68
2022/03/08 00:25:14;;;;;;;18.65;12.18;;;;;;;8.83;28.94;100206.13;341878;28;2080;-68
2022/03/08 00:25:26;;;;;;;19.35;12.45;;;;;;;8.87;29.10;100207.78;343137;28;1584;-68
2022/03/08 00:25:38;;;;;;;18.77;12.52;;;;;;;8.84;29.42;100202.69;342484;28;1110;-69
2022/03/08 00:25:50;;;;;;;20.55;12.63;;;;;;;8.90;29.02;100209.50;342400;28;1398;-68
2022/03/08 00:26:03;;;;;;;20.23;12.70;;;;;;;8.91;29.45;100203.41;342417;28;1710;-68
2022/03/08 00:26:16;;;;;;;19.55;12.38;;;;;;;8.95;29.11;100202.50;342397;28;1066;-69
2022/03/08 00:26:28;;;;;;;18.88;11.85;;;;;;;8.97;29.15;100203.31;341665;28;2218;-69
2022/03/08 00:26:40;;;;;;;18.23;11.50;;;;;;;8.95;28.74;100205.09;343582;28;1157;-68
2022/03/08 00:26:52;;;;;;;17.13;11.32;;;;;;;8.96;28.91;100209.41;343735;28;1044;-68
2022/03/08 00:27:04;;;;;;;17.13;11.65;;;;;;;9.01;28.88;100204.97;342903;28;1542;-68
2022/03/08 00:27:16;;;;;;;17.35;11.80;;;;;;;8.94;29.18;100200.78;342265;28;1067;-68
2022/03/08 00:27:28;;;;;;;17.63;11.50;;;;;;;8.97;29.10;100200.72;342199;28;1643;-68
2022/03/08 00:27:45;;;;;;;17.73;11.57;;;;;;;8.80;29.57;100201.88;342371;28;1095;-69
2022/03/08 00:27:58;;;;;;;19.27;12.40;;;;;;;8.79;29.48;100205.34;342472;28;1086;-68
2022/03/08 00:28:12;;;;;;;18.35;12.07;;;;;;;8.56;29.56;100202.25;342307;28;1278;-68
2022/03/08 00:28:24;;;;;;;19.02;11.68;;;;;;;8.71;29.59;100201.16;341816;28;1908;-69
2022/03/08 00:28:36;;;;;;;20.85;11.95;;;;;;;8.67;29.21;100200.38;341421;28;1565;-69
2022/03/08 00:28:48;;;;;;;20.42;11.90;;;;;;;8.62;29.51;100202.16;342330;28;1067;-68
2022/03/08 00:29:00;;;;;;;19.80;11.55;;;;;;;8.61;29.51;100205.63;342277;28;1193;-69
2022/03/08 00:29:12;;;;;;;18.58;11.63;;;;;;;8.62;30.00;100202.16;342318;28;1070;-69
2022/03/08 00:29:25;;;;;;;18.30;11.35;;;;;;;8.61;29.82;100210.81;342055;28;1107;-69
2022/03/08 00:29:37;;;;;;;16.98;10.60;;;;;;;8.65;29.00;100207.28;342219;28;1083;-68
2022/03/08 00:29:49;;;;;;;16.65;10.40;;;;;;;8.67;29.52;100204.69;342916;28;1083;-68
2022/03/08 00:30:01;;;;;;;17.50;10.63;;;;;;;8.65;28.99;100204.69;343668;28;1030;-69
2022/03/08 00:30:19;;;;;;;18.17;10.98;;;;;;;8.65;29.71;100202.09;343555;28;1052;-68
2022/03/08 00:30:32;;;;;;;16.77;11.13;;;;;;;8.75;29.38;100203.69;341851;28;1881;-69
2022/03/08 00:30:44;;;;;;;16.73;11.27;;;;;;;8.79;28.80;100202.75;342465;28;1376;-69
2022/03/08 00:30:57;;;;;;;17.73;11.13;;;;;;;8.83;29.61;100200.94;340770;28;2087;-68
2022/03/08 00:31:09;;;;;;;18.08;10.80;;;;;;;8.87;29.27;100199.16;341601;28;1926;-70
2022/03/08 00:31:21;;;;;;;16.73;10.45;;;;;;;8.89;29.55;100206.03;343199;28;1641;-68
2022/03/08 00:31:33;;;;;;;16.58;10.88;;;;;;;8.87;28.84;100202.59;342089;28;1296;-68
2022/03/08 00:31:45;;;;;;;16.38;11.18;;;;;;;8.89;29.01;100197.41;341791;28;1373;-69
2022/03/08 00:31:57;;;;;;;15.27;10.95;;;;;;;8.63;29.31;100201.28;341938;28;1780;-69
2022/03/08 00:32:09;;;;;;;14.75;10.52;;;;;;;8.45;29.23;100201.56;342258;28;1067;-69
2022/03/08 00:32:21;;;;;;;15.32;10.65;;;;;;;8.49;29.35;100205.81;342218;28;1500;-68
2022/03/08 00:32:33;;;;;;;17.30;10.60;;;;;;;8.60;29.43;100203.94;343653;28;1114;-69
2022/03/08 00:33:16;;;;;;;16.90;10.30;;;;;;;8.77;29.32;100201.94;342996;28;1499;-69
2022/03/08 00:33:28;;;;;;;17.83;10.70;;;;;;;8.83;29.20;100206.13;342387;28;2009;-68
2022/03/08 00:33:41;;;;;;;18.00;10.50;;;;;;;8.79;29.49;100205.34;341836;28;1071;-68
2022/03/08 00:33:53;;;;;;;16.20;10.55;;;;;;;8.82;29.46;100198.41;342340;28;1268;-68
2022/03/08 00:34:05;;;;;;;15.73;10.73;;;;;;;8.84;28.94;100199.25;342089;28;1116;-68
2022/03/08 00:34:17;;;;;;;16.60;11.05;;;;;;;8.77;29.30;100207.13;342139;28;1987;-68
2022/03/08 00:34:29;;;;;;;16.10;10.98;;;;;;;8.78;29.38;100202.78;342175;28;1118;-69
2022/03/08 00:34:41;;;;;;;15.93;10.80;;;;;;;8.83;29.07;100205.28;342827;28;1615;-68
2022/03/08 00:34:53;;;;;;;16.35;10.70;;;;;;;8.87;28.79;100202.59;343634;28;1066;-69
2022/03/08 00:35:06;;;;;;;16.48;10.73;;;;;;;8.85;28.89;100204.38;343685;28;1190;-68
2022/03/08 00:35:19;;;;;;;15.60;10.57;;;;;;;8.89;28.77;100210.38;342217;28;2176;-68
2022/03/08 00:35:31;;;;;;;15.95;10.35;;;;;;;8.90;28.99;100212.09;342268;28;1328;-68
2022/03/08 00:35:44;;;;;;;16.65;11.02;;;;;;;8.90;29.03;100212.09;341505;28;1841;-68
2022/03/08 00:35:56;;;;;;;16.42;10.93;;;;;;;8.84;29.15;100207.88;340907;29;1201;-68
2022/03/08 00:36:09;;;;;;;16.75;10.57;;;;;;;8.77;28.91;100207.13;340954;28;2051;-68
2022/03/08 00:36:21;;;;;;;16.83;10.43;;;;;;;8.84;28.85;100213.03;342395;28;1584;-69
2022/03/08 00:36:33;;;;;;;16.70;10.30;;;;;;;8.83;29.43;100210.47;342566;28;1107;-68
2022/03/08 00:36:45;;;;;;;17.17;10.32;;;;;;;8.85;28.98;100208.72;342359;28;1029;-69
2022/03/08 00:36:57;;;;;;;17.13;10.35;;;;;;;8.79;29.28;100205.34;341213;28;1550;-68
2022/03/08 00:37:09;;;;;;;15.85;10.50;;;;;;;8.69;29.55;100203.78;341161;28;1083;-68
2022/03/08 00:37:21;;;;;;;16.33;10.48;;;;;;;8.64;29.25;100204.75;341285;28;1771;-68
2022/03/08 00:37:34;;;;;;;15.98;10.46;;;;;;;8.68;28.98;100211.59;342402;28;1311;-68
2022/03/08 00:37:48;;;;;;;17.58;10.70;;;;;;;8.79;29.31;100207.94;341832;28;2142;-69
2022/03/08 00:38:00;;;;;;;15.77;10.18;;;;;;;8.66;28.94;100205.56;341316;28;1121;-69
2022/03/08 00:38:12;;;;;;;15.10;10.07;;;;;;;8.77;29.34;100207.13;341340;28;2124;-68
2022/03/08 00:38:24;;;;;;;14.40;10.18;;;;;;;8.71;29.49;100202.03;341323;28;1595;-68
2022/03/08 00:38:37;;;;;;;14.40;10.15;;;;;;;8.67;28.99;100204.69;342352;28;1084;-69
2022/03/08 00:38:49;;;;;;;14.02;10.18;;;;;;;8.72;29.49;100208.06;342845;28;2288;-68
2022/03/08 00:39:02;;;;;;;14.60;10.57;;;;;;;8.72;29.20;100208.06;343519;28;1240;-68
2022/03/08 00:39:14;;;;;;;16.70;10.52;;;;;;;8.78;29.45;100207.97;343630;28;1037;-68
2022/03/08 00:39:26;;;;;;;18.20;10.65;;;;;;;8.76;29.11;100210.56;341707;28;1573;-68
2022/03/08 00:39:39;;;;;;;16.00;10.43;;;;;;;8.76;29.07;100210.56;340723;29;1063;-68
2022/03/08 00:39:51;;;;;;;15.05;10.20;;;;;;;8.65;29.16;100211.63;340469;29;1148;-68
2022/03/08 00:40:06;;;;;;;15.65;10.63;;;;;;;8.62;29.41;100209.94;340797;29;1050;-68
2022/03/08 00:40:21;;;;;;;18.38;10.85;;;;;;;8.73;29.08;100205.47;340862;29;1067;-68
2022/03/08 00:40:33;;;;;;;17.10;10.32;;;;;;;8.68;29.51;100203.81;341955;28;1022;-69
2022/03/08 00:40:45;;;;;;;15.68;10.75;;;;;;;8.48;29.31;100206.72;342310;28;1129;-69
2022/03/08 00:40:57;;;;;;;16.15;10.88;;;;;;;8.62;29.70;100209.94;341870;28;1752;-68
2022/03/08 00:41:10;;;;;;;15.77;10.80;;;;;;;8.67;29.17;100220.22;342762;28;1619;-68
2022/03/08 00:41:22;;;;;;;15.25;10.55;;;;;;;8.64;29.45;100205.59;341826;28;1808;-68
2022/03/08 00:41:34;;;;;;;15.05;9.95;;;;;;;8.71;29.13;100212.41;343506;28;1087;-69
2022/03/08 00:41:46;;;;;;;15.80;10.00;;;;;;;8.68;29.63;100209.84;343521;28;1097;-68
2022/03/08 00:41:58;;;;;;;17.92;11.02;;;;;;;8.54;29.34;100209.22;341174;28;1042;-68
2022/03/08 00:42:11;;;;;;;18.23;11.15;;;;;;;8.64;29.48;100209.94;341274;28;1039;-69
2022/03/08 00:42:24;;;;;;;15.75;10.52;;;;;;;8.51;29.84;100209.25;341448;28;1556;-68
2022/03/08 00:42:36;;;;;;;16.23;10.43;;;;;;;8.54;29.81;100209.22;342482;28;1768;-68
2022/03/08 00:42:48;;;;;;;16.50;10.20;;;;;;;8.65;29.32;100211.63;342218;28;1796;-68
2022/03/08 00:43:00;;;;;;;17.90;10.50;;;;;;;8.70;29.16;100207.25;341747;28;1432;-69
2022/03/08 00:43:12;;;;;;;17.85;10.73;;;;;;;8.66;29.40;100209.00;342046;28;1603;-68
2022/03/08 00:43:24;;;;;;;16.17;10.70;;;;;;;8.61;29.27;100213.41;342189;28;1599;-68
2022/03/08 00:43:36;;;;;;;17.02;11.07;;;;;;;8.66;29.50;100208.16;342174;28;1342;-68
2022/03/08 00:43:48;;;;;;;16.88;10.95;;;;;;;8.57;29.38;100210.03;341830;28;1084;-69
2022/03/08 00:44:00;;;;;;;16.85;10.70;;;;;;;8.72;29.44;100213.25;341446;28;1889;-68
2022/03/08 00:44:13;;;;;;;16.48;10.65;;;;;;;8.71;29.54;100211.53;342118;28;1217;-69
2022/03/08 00:44:25;;;;;;;18.48;10.90;;;;;;;8.43;30.21;100200.72;341997;28;1496;-69
2022/03/08 00:44:41;;;;;;;17.92;10.75;;;;;;;8.62;29.30;100212.53;342142;28;1226;-69
2022/03/08 00:44:53;;;;;;;14.95;10.32;;;;;;;8.64;29.81;100215.97;342388;28;1222;-69
2022/03/08 00:45:07;;;;;;;14.25;10.23;;;;;;;8.40;29.84;100207.63;342460;28;1277;-68
2022/03/08 00:45:19;;;;;;;14.10;10.43;;;;;;;8.32;29.83;100208.63;342569;28;1062;-69
2022/03/08 00:45:32;;;;;;;14.93;10.38;;;;;;;8.51;29.40;100209.25;341201;28;1066;-68
2022/03/08 00:45:44;;;;;;;16.10;10.18;;;;;;;8.61;29.34;100210.81;341118;28;1054;-68
2022/03/08 00:45:56;;;;;;;15.93;10.15;;;;;;;8.57;29.83;100203.97;341195;28;1171;-68
2022/03/08 00:46:10;;;;;;;15.98;10.57;;;;;;;8.57;29.82;100214.31;343657;28;1285;-68
2022/03/08 00:46:22;;;;;;;15.35;10.98;;;;;;;8.44;30.26;100208.50;343507;28;1200;-69
2022/03/08 00:46:34;;;;;;;17.30;10.98;;;;;;;8.55;29.55;100216.97;341805;28;2616;-68
2022/03/08 00:46:46;;;;;;;16.98;10.63;;;;;;;8.41;30.16;100205.97;342430;28;1086;-69
2022/03/08 00:46:58;;;;;;;15.73;10.32;;;;;;;8.48;29.89;100214.47;342611;28;1034;-68
2022/03/08 00:47:11;;;;;;;16.92;10.63;;;;;;;8.43;29.82;100211.09;342398;28;1323;-68
2022/03/08 00:47:23;;;;;;;17.25;10.95;;;;;;;8.56;29.81;100213.47;341924;28;1973;-68
2022/03/08 00:47:36;;;;;;;15.40;10.60;;;;;;;8.56;29.95;100210.03;341412;28;1859;-68
2022/03/08 00:47:49;;;;;;;14.70;9.90;;;;;;;8.62;29.64;100212.53;343034;28;1686;-68
2022/03/08 00:48:01;;;;;;;15.88;10.27;;;;;;;8.63;29.37;100214.22;342213;28;2050;-69
2022/03/08 00:48:13;;;;;;;17.85;10.60;;;;;;;8.50;30.11;100210.13;342207;28;1014;-69
2022/03/08 00:48:25;;;;;;;16.67;10.88;;;;;;;8.62;29.62;100206.50;342190;28;1640;-68
2022/03/08 00:48:37;;;;;;;16.30;11.13;;;;;;;8.63;29.40;100208.19;342377;28;1205;-69
2022/03/08 00:48:50;;;;;;;15.57;10.93;;;;;;;8.58;29.58;100210.88;342392;28;1157;-68
2022/03/08 00:49:03;;;;;;;15.15;10.80;;;;;;;8.65;29.26;100212.47;342279;28;1211;-68
2022/03/08 00:49:15;;;;;;;15.52;10.85;;;;;;;8.73;29.42;100215.81;341575;28;2265;-69
2022/03/08 00:49:27;;;;;;;15.65;10.75;;;;;;;8.83;29.50;100210.47;343436;28;1552;-68
2022/03/08 00:49:39;;;;;;;15.70;10.35;;;;;;;8.86;29.59;100211.28;343483;28;1059;-68
2022/03/08 00:49:52;;;;;;;16.70;10.60;;;;;;;8.88;28.94;100213.84;343020;28;2152;-68
2022/03/08 00:50:06;;;;;;;16.27;10.65;;;;;;;8.94;29.00;100214.59;344983;28;1074;-68
2022/03/08 00:50:22;;;;;;;15.25;10.43;;;;;;;8.94;29.01;100208.56;343392;28;1879;-69
2022/03/08 00:50:36;;;;;;;14.15;9.98;;;;;;;8.90;29.17;100209.50;342879;28;1894;-68
2022/03/08 00:50:48;;;;;;;15.10;10.13;;;;;;;8.89;29.05;100210.38;343440;28;1753;-69
2022/03/08 00:51:00;;;;;;;15.65;10.10;;;;;;;8.95;28.92;100210.25;344955;28;1070;-68
2022/03/08 00:51:12;;;;;;;16.42;10.63;;;;;;;8.85;28.72;100203.53;344839;28;2217;-68
2022/03/08 00:51:25;;;;;;;16.27;11.20;;;;;;;8.93;28.63;100206.84;344266;28;1568;-68
2022/03/08 00:51:37;;;;;;;17.45;11.23;;;;;;;8.90;29.11;100207.75;342171;28;1063;-69
2022/03/08 00:51:51;;;;;;;17.88;10.68;;;;;;;8.95;28.97;100211.16;342411;28;1047;-68
2022/03/08 00:52:05;;;;;;;16.05;10.10;;;;;;;8.98;29.03;100210.22;342364;28;1061;-69
2022/03/08 00:52:17;;;;;;;15.85;10.60;;;;;;;8.95;28.64;100210.25;342263;28;1167;-68
2022/03/08 00:52:29;;;;;;;15.30;10.80;;;;;;;8.83;29.27;100205.28;342615;28;1498;-68
2022/03/08 00:52:42;;;;;;;15.80;11.07;;;;;;;8.87;29.06;100207.78;342514;28;1025;-68
2022/03/08 00:52:55;;;;;;;16.30;11.10;;;;;;;8.86;28.47;100205.25;342287;28;1285;-68
2022/03/08 00:53:07;;;;;;;16.98;11.02;;;;;;;8.85;29.12;100209.56;342427;28;1027;-68
2022/03/08 00:53:19;;;;;;;16.65;10.52;;;;;;;8.92;28.92;100211.19;342406;28;1088;-68
2022/03/08 00:53:31;;;;;;;16.38;10.25;;;;;;;8.86;29.20;100200.06;342426;28;1103;-68
2022/03/08 00:53:43;;;;;;;16.20;10.40;;;;;;;8.72;28.66;100208.91;342043;28;1249;-69
2022/03/08 00:53:55;;;;;;;15.82;10.70;;;;;;;8.79;29.41;100205.34;342139;28;1051;-68
2022/03/08 00:54:07;;;;;;;14.38;10.50;;;;;;;8.87;28.88;100206.94;343329;28;1595;-68
2022/03/08 00:54:19;;;;;;;14.52;10.23;;;;;;;8.93;29.33;100201.66;343598;28;1090;-68
2022/03/08 00:54:31;;;;;;;15.48;10.32;;;;;;;8.89;28.67;100206.03;343682;28;1157;-68
2022/03/08 00:54:43;;;;;;;15.75;10.10;;;;;;;8.86;29.19;100205.25;343800;28;1192;-68
2022/03/08 00:54:56;;;;;;;15.77;10.10;;;;;;;8.96;29.24;100206.81;343804;28;1238;-68
2022/03/08 00:55:09;;;;;;;16.88;10.65;;;;;;;9.00;28.87;100204.13;343780;28;1250;-68
2022/03/08 00:55:24;;;;;;;17.80;11.00;;;;;;;9.00;28.74;100208.47;343659;28;1174;-68
2022/03/08 00:55:37;;;;;;;16.35;10.48;;;;;;;9.04;28.88;100199.75;343772;28;1090;-68
2022/03/08 00:55:48;;;;;;;16.40;10.50;;;;;;;9.04;28.94;100202.34;343706;28;1168;-68
2022/03/08 00:56:00;;;;;;;16.27;10.77;;;;;;;8.95;28.96;100200.78;343817;28;1026;-69
2022/03/08 00:56:14;;;;;;;17.38;10.93;;;;;;;9.03;29.13;100203.22;343028;28;2009;-68
2022/03/08 00:56:26;;;;;;;16.83;10.57;;;;;;;8.97;29.33;100208.50;341935;28;1541;-68
2022/03/08 00:56:38;;;;;;;15.95;10.55;;;;;;;9.00;29.30;100203.28;342426;28;1755;-69
2022/03/08 00:56:50;;;;;;;15.50;10.90;;;;;;;8.87;29.29;100201.75;341867;28;2230;-68
2022/03/08 00:57:04;;;;;;;15.13;11.00;;;;;;;8.93;28.89;100205.13;341341;28;1768;-68
2022/03/08 00:57:16;;;;;;;14.65;10.45;;;;;;;8.92;28.77;100203.41;342413;28;1507;-68
2022/03/08 00:57:28;;;;;;;14.88;10.50;;;;;;;8.84;28.81;100204.41;342236;28;2493;-68
2022/03/08 00:57:40;;;;;;;15.55;10.80;;;;;;;8.84;29.11;100201.84;342399;28;1035;-68
2022/03/08 00:57:53;;;;;;;15.02;10.32;;;;;;;8.83;28.63;100206.13;342238;28;1038;-69
2022/03/08 00:58:06;;;;;;;15.77;10.05;;;;;;;8.86;28.92;100206.09;342193;28;1348;-68
2022/03/08 00:58:20;;;;;;;15.30;9.95;;;;;;;8.93;28.91;100206.84;342181;28;1195;-69
2022/03/08 00:58:34;;;;;;;15.55;10.43;;;;;;;8.96;29.03;100206.81;340794;29;934;-68
2022/03/08 00:58:46;;;;;;;15.23;10.63;;;;;;;8.97;29.01;100200.72;341887;28;1745;-68
2022/03/08 00:58:58;;;;;;;16.80;10.90;;;;;;;8.96;28.49;100202.47;342573;28;1505;-68
2022/03/08 00:59:10;;;;;;;16.38;10.77;;;;;;;8.67;28.71;100196.91;343577;28;1230;-68
2022/03/08 00:59:24;;;;;;;15.65;10.15;;;;;;;8.87;29.19;100199.16;343456;28;1161;-69
2022/03/08 00:59:36;;;;;;;16.23;10.02;;;;;;;8.93;28.58;100199.94;342168;28;1028;-68